Time;durP1;ratioP1;P1;durP2;ratioP2;P2;SDS_P1;SDS_P2;PMS_P1;PMS_P2;Temp;Humidity;BMP_temperature;BMP_pressure;BME280_temperature;BME280_humidity;BME280_pressure;Samples;Min_cycle;Max_cycle;Signal;HPM_P1;HPM_P2
2022/09/20 00:01:13;;;;;;;30.20;28.37;;;9.70;99.90;;;;;;5106817;28;20220;-76
2022/09/20 00:03:43;;;;;;;32.13;30.43;;;9.70;99.90;;;;;;5090555;28;20255;-77
2022/09/20 00:06:12;;;;;;;36.70;34.60;;;9.70;99.90;;;;;;5090520;28;20201;-77
2022/09/20 00:08:38;;;;;;;34.00;32.00;;;9.70;99.90;;;;;;5091284;28;20221;-76
2022/09/20 00:11:11;;;;;;;34.90;32.97;;;9.80;99.90;;;;;;5091600;28;20242;-76
2022/09/20 00:13:38;;;;;;;35.70;33.80;;;9.80;99.90;;;;;;5091890;28;20223;-77
2022/09/20 00:16:10;;;;;;;35.33;33.17;;;9.80;99.90;;;;;;5107681;28;20203;-77
2022/09/20 00:18:37;;;;;;;31.33;29.53;;;9.80;99.90;;;;;;5092819;28;20290;-76
2022/09/20 00:21:04;;;;;;;28.43;26.87;;;9.80;99.90;;;;;;5091366;28;20774;-77
2022/09/20 00:23:31;;;;;;;31.17;29.23;;;9.70;99.90;;;;;;5091290;28;20199;-77
2022/09/20 00:25:59;;;;;;;30.47;28.77;;;9.80;99.90;;;;;;5090292;28;20280;-77
2022/09/20 00:28:26;;;;;;;29.03;27.33;;;9.80;99.90;;;;;;5089944;28;20177;-77
2022/09/20 00:30:53;;;;;;;28.53;26.83;;;9.70;99.90;;;;;;5091787;28;20596;-77
2022/09/20 00:33:20;;;;;;;27.17;25.37;;;9.80;99.90;;;;;;5091315;28;20177;-76
2022/09/20 00:35:47;;;;;;;31.60;29.87;;;9.80;99.90;;;;;;5106806;28;20205;-76
2022/09/20 00:38:13;;;;;;;34.20;32.23;;;9.80;99.90;;;;;;5089103;28;20181;-76
2022/09/20 00:40:41;;;;;;;31.10;29.00;;;9.70;99.90;;;;;;5090893;28;20277;-76
2022/09/20 00:43:09;;;;;;;25.97;24.47;;;9.70;99.90;;;;;;5091039;28;20185;-76
2022/09/20 00:45:35;;;;;;;27.00;25.40;;;9.60;99.90;;;;;;5091711;28;20268;-78
2022/09/20 00:48:13;;;;;;;25.20;23.80;;;9.60;99.90;;;;;;5092546;28;20328;-78
2022/09/20 00:50:48;;;;;;;23.87;22.40;;;9.60;99.90;;;;;;5090834;28;20214;-78
2022/09/20 00:53:38;;;;;;;20.50;19.33;;;9.50;99.90;;;;;;5090109;28;20191;-77
2022/09/20 00:56:14;;;;;;;27.50;26.03;;;9.50;99.90;;;;;;5090140;28;20223;-78
2022/09/20 00:58:45;;;;;;;41.73;39.33;;;9.50;99.90;;;;;;5090241;28;20556;-78
2022/09/20 01:01:12;;;;;;;25.77;24.33;;;9.50;99.90;;;;;;5090901;28;20216;-78
2022/09/20 01:03:41;;;;;;;20.93;19.47;;;9.50;99.90;;;;;;5096220;28;20173;-77
2022/09/20 01:06:12;;;;;;;28.37;26.77;;;9.60;99.90;;;;;;5093616;28;20220;-78
2022/09/20 01:08:40;;;;;;;28.57;27.00;;;9.60;99.90;;;;;;5107153;28;20186;-77
2022/09/20 01:11:07;;;;;;;24.97;23.60;;;9.60;99.90;;;;;;5090734;28;20178;-79
2022/09/20 01:13:34;;;;;;;30.20;28.30;;;9.60;99.90;;;;;;5090471;28;20242;-78
2022/09/20 01:16:02;;;;;;;20.10;18.63;;;9.60;99.90;;;;;;5107511;28;20205;-78
2022/09/20 01:18:30;;;;;;;14.93;13.10;;;9.60;99.90;;;;;;5090038;28;20268;-78
2022/09/20 01:20:58;;;;;;;11.90;11.20;;;9.60;99.90;;;;;;5075559;28;20208;-78
2022/09/20 01:24:01;;;;;;;13.77;12.77;;;9.60;99.90;;;;;;5093444;28;20275;-78
2022/09/20 01:27:10;;;;;;;10.53;9.80;;;9.60;99.90;;;;;;5093186;28;20572;-79
2022/09/20 01:30:11;;;;;;;18.03;17.03;;;9.60;99.90;;;;;;5066478;28;20200;-78
2022/09/20 01:33:10;;;;;;;28.00;26.30;;;9.60;99.90;;;;;;5078218;28;20189;-78
2022/09/20 01:35:38;;;;;;;23.07;21.77;;;9.60;99.90;;;;;;5080246;28;20217;-79
2022/09/20 01:38:18;;;;;;;25.47;24.13;;;9.60;99.90;;;;;;5091057;28;20371;-77
2022/09/20 01:41:22;;;;;;;28.47;26.97;;;9.60;99.90;;;;;;5091329;28;20215;-78
2022/09/20 01:43:54;;;;;;;33.40;31.30;;;9.60;99.90;;;;;;5090191;28;20173;-78
2022/09/20 01:46:32;;;;;;;28.03;26.43;;;9.60;99.90;;;;;;5090398;28;20208;-78
2022/09/20 01:49:29;;;;;;;25.73;24.47;;;9.70;99.90;;;;;;5087606;28;20185;-78
2022/09/20 01:52:13;;;;;;;28.33;26.83;;;9.70;99.90;;;;;;5090862;28;20185;-79
2022/09/20 01:55:11;;;;;;;27.37;26.03;;;9.70;99.90;;;;;;5092290;28;20181;-78
2022/09/20 01:57:56;;;;;;;27.93;26.27;;;9.60;99.90;;;;;;5085006;28;20275;-79
2022/09/20 02:00:33;;;;;;;29.90;28.20;;;9.70;99.90;;;;;;5091218;28;20276;-78
2022/09/20 02:03:36;;;;;;;29.37;27.80;;;9.60;99.90;;;;;;5089278;28;20536;-78
2022/09/20 02:06:22;;;;;;;29.60;27.83;;;9.60;99.90;;;;;;5111804;28;20216;-78
2022/09/20 02:09:08;;;;;;;27.50;25.80;;;9.70;99.90;;;;;;5111420;28;20177;-78
2022/09/20 02:12:24;;;;;;;27.90;25.80;;;9.60;99.90;;;;;;5095121;28;20272;-78
2022/09/20 02:14:59;;;;;;;27.53;25.60;;;9.60;99.90;;;;;;5068185;28;20193;-78
2022/09/20 02:17:46;;;;;;;31.43;29.80;;;9.60;99.90;;;;;;5092880;28;20177;-78
2022/09/20 02:20:17;;;;;;;31.73;29.60;;;9.60;99.90;;;;;;5094808;28;20215;-78
2022/09/20 02:22:57;;;;;;;32.20;30.50;;;9.60;99.90;;;;;;5093308;28;20173;-78
2022/09/20 02:25:47;;;;;;;33.77;31.43;;;9.70;99.90;;;;;;5094167;28;20196;-78
2022/09/20 02:28:14;;;;;;;22.53;21.13;;;9.70;99.90;;;;;;5093605;28;20173;-78
2022/09/20 02:30:46;;;;;;;25.63;24.30;;;9.70;99.90;;;;;;5092762;28;20236;-78
2022/09/20 02:33:42;;;;;;;28.83;27.40;;;9.60;99.90;;;;;;5073958;28;20220;-78
2022/09/20 02:36:37;;;;;;;15.17;14.27;;;9.70;99.90;;;;;;5076090;28;20205;-78
2022/09/20 02:39:32;;;;;;;13.57;12.67;;;9.70;99.90;;;;;;5074969;28;20219;-79
2022/09/20 02:42:17;;;;;;;20.87;19.70;;;9.70;99.90;;;;;;5077127;28;20205;-78
2022/09/20 02:45:11;;;;;;;30.80;29.20;;;9.70;99.90;;;;;;5091063;28;20568;-78
2022/09/20 02:47:40;;;;;;;25.87;24.37;;;9.70;99.90;;;;;;5093434;28;20604;-79
2022/09/20 02:50:18;;;;;;;26.60;24.97;;;9.70;99.90;;;;;;5093496;28;20747;-78
2022/09/20 02:52:50;;;;;;;27.07;25.47;;;9.70;99.90;;;;;;5110617;28;20643;-78
2022/09/20 02:55:22;;;;;;;27.80;26.27;;;9.70;99.90;;;;;;5094849;28;20576;-78
2022/09/20 02:58:22;;;;;;;31.60;29.83;;;9.70;99.90;;;;;;5093538;28;20242;-78
2022/09/20 03:00:58;;;;;;;30.87;29.07;;;9.70;99.90;;;;;;5092609;28;20265;-78
2022/09/20 03:03:57;;;;;;;26.47;25.00;;;9.70;99.90;;;;;;5109518;28;20207;-78
2022/09/20 03:06:47;;;;;;;23.87;22.67;;;9.70;99.90;;;;;;5082777;28;20209;-79
2022/09/20 03:09:33;;;;;;;21.57;20.37;;;9.70;99.90;;;;;;5093282;28;20179;-79
2022/09/20 03:12:34;;;;;;;24.47;23.10;;;9.70;99.90;;;;;;5109525;28;20664;-79
2022/09/20 03:15:14;;;;;;;24.87;23.10;;;9.80;99.90;;;;;;5093729;28;20185;-79
2022/09/20 03:17:51;;;;;;;25.80;24.13;;;9.80;99.90;;;;;;5093434;28;20185;-79
2022/09/20 03:20:51;;;;;;;24.50;22.93;;;9.80;99.90;;;;;;5093654;28;20220;-79
2022/09/20 03:23:55;;;;;;;29.27;27.53;;;9.80;99.90;;;;;;5093708;28;20216;-79
2022/09/20 03:26:33;;;;;;;26.43;24.77;;;9.80;99.90;;;;;;5097069;28;20246;-76
2022/09/20 03:29:04;;;;;;;22.93;21.40;;;9.80;99.90;;;;;;5116616;28;20179;-78
2022/09/20 03:32:21;;;;;;;11.73;10.63;;;9.80;99.90;;;;;;5094840;28;20184;-78
2022/09/20 03:34:56;;;;;;;21.73;20.53;;;9.70;99.90;;;;;;5072702;28;20200;-78
2022/09/20 03:37:32;;;;;;;29.87;27.80;;;9.70;99.90;;;;;;5094970;28;20222;-77
2022/09/20 03:40:06;;;;;;;27.67;26.00;;;9.70;99.90;;;;;;5093049;28;20185;-78
2022/09/20 03:42:35;;;;;;;25.83;24.20;;;9.70;99.90;;;;;;5093320;28;20601;-78
2022/09/20 03:45:22;;;;;;;31.13;29.23;;;9.70;99.90;;;;;;5108383;28;20293;-77
2022/09/20 03:48:01;;;;;;;32.90;31.03;;;9.70;99.90;;;;;;5092494;28;20720;-78
2022/09/20 03:50:50;;;;;;;37.67;35.67;;;9.80;99.90;;;;;;5093989;28;20187;-77
2022/09/20 03:53:19;;;;;;;18.23;17.20;;;9.80;99.90;;;;;;5112166;28;20180;-78
2022/09/20 03:55:51;;;;;;;20.73;19.50;;;9.80;99.90;;;;;;5104363;22;20665;-77
2022/09/20 03:58:23;;;;;;;32.83;30.30;;;9.80;99.90;;;;;;5051814;28;20214;-76
2022/09/20 04:00:59;;;;;;;28.33;26.77;;;9.80;99.90;;;;;;5052049;28;20309;-77
2022/09/20 04:03:56;;;;;;;28.83;26.90;;;9.80;99.90;;;;;;5034921;28;20189;-77
2022/09/20 04:07:02;;;;;;;27.47;25.87;;;9.80;99.90;;;;;;5041338;28;20274;-77
2022/09/20 04:09:40;;;;;;;29.77;28.07;;;9.80;99.90;;;;;;5028416;28;20189;-77
2022/09/20 04:12:37;;;;;;;34.47;32.47;;;9.80;99.90;;;;;;5052692;28;20235;-77
2022/09/20 04:15:12;;;;;;;29.77;28.20;;;9.80;99.90;;;;;;5051589;28;20182;-77
2022/09/20 04:17:59;;;;;;;30.90;29.20;;;9.80;99.90;;;;;;5033717;28;20182;-77
2022/09/20 04:20:31;;;;;;;32.10;30.40;;;9.80;99.90;;;;;;5033768;28;20309;-77
2022/09/20 04:23:06;;;;;;;32.17;30.20;;;9.80;99.90;;;;;;5051872;28;20189;-78
2022/09/20 04:25:38;;;;;;;37.30;35.23;;;9.90;99.90;;;;;;5034379;28;20237;-77
2022/09/20 04:28:11;;;;;;;33.90;31.80;;;9.80;99.90;;;;;;5035487;28;20179;-76
2022/09/20 04:30:42;;;;;;;27.70;26.03;;;9.80;99.90;;;;;;5021668;28;20256;-76
2022/09/20 04:33:23;;;;;;;24.10;22.60;;;9.80;99.90;;;;;;5018218;28;20209;-78
2022/09/20 04:36:27;;;;;;;24.53;23.13;;;9.80;99.90;;;;;;5016093;28;20646;-79
2022/09/20 04:39:16;;;;;;;35.07;33.17;;;9.80;99.90;;;;;;5034609;28;20562;-78
2022/09/20 04:42:41;;;;;;;25.10;23.40;;;9.80;99.90;;;;;;5035101;28;20286;-78
2022/09/20 04:45:27;;;;;;;19.17;17.77;;;9.80;99.90;;;;;;4990909;28;20185;-78
2022/09/20 04:48:29;;;;;;;21.53;19.83;;;9.80;99.90;;;;;;5034931;28;20183;-78
2022/09/20 04:51:33;;;;;;;21.70;20.30;;;9.80;99.90;;;;;;5048998;28;20189;-79
2022/09/20 04:54:36;;;;;;;21.13;19.63;;;9.80;99.90;;;;;;5045516;28;20190;-78
2022/09/20 04:57:24;;;;;;;21.50;20.30;;;9.80;99.90;;;;;;5033344;28;20636;-78
2022/09/20 05:00:08;;;;;;;25.00;23.50;;;9.80;99.90;;;;;;5034046;28;20704;-78
2022/09/20 05:02:43;;;;;;;23.63;22.10;;;9.80;99.90;;;;;;5052034;28;20197;-78
2022/09/20 05:05:43;;;;;;;23.03;21.37;;;9.80;99.90;;;;;;5055743;28;20222;-77
2022/09/20 05:08:22;;;;;;;23.67;22.17;;;9.80;99.90;;;;;;5054635;28;20179;-78
2022/09/20 05:11:16;;;;;;;22.00;20.60;;;9.70;99.90;;;;;;5050821;28;20674;-79
2022/09/20 05:14:07;;;;;;;22.70;20.97;;;9.70;99.90;;;;;;5051222;28;20277;-78
2022/09/20 05:16:56;;;;;;;22.87;21.23;;;9.70;99.90;;;;;;5030673;28;20214;-78
2022/09/20 05:19:34;;;;;;;20.60;19.27;;;9.70;99.90;;;;;;5031987;28;20182;-79
2022/09/20 05:22:21;;;;;;;22.07;20.23;;;9.60;99.90;;;;;;5051119;28;20222;-78
2022/09/20 05:24:47;;;;;;;20.00;18.50;;;9.60;99.90;;;;;;5033276;28;20198;-78
2022/09/20 05:27:32;;;;;;;18.33;16.83;;;9.40;99.90;;;;;;5050957;28;20230;-78
2022/09/20 05:30:19;;;;;;;16.17;15.07;;;9.40;99.90;;;;;;5033360;28;20277;-78
2022/09/20 05:32:50;;;;;;;22.30;20.70;;;9.40;99.90;;;;;;5032633;28;20186;-75
2022/09/20 05:35:30;;;;;;;29.73;27.70;;;9.40;99.90;;;;;;5032462;28;20178;-75
2022/09/20 05:38:10;;;;;;;34.53;32.47;;;9.50;99.90;;;;;;5031883;28;20171;-76
2022/09/20 05:41:09;;;;;;;25.63;24.07;;;9.50;99.90;;;;;;5035768;28;20201;-75
2022/09/20 05:43:57;;;;;;;25.23;23.67;;;9.60;99.90;;;;;;4999716;28;20193;-74
2022/09/20 05:46:53;;;;;;;16.90;15.67;;;9.70;99.90;;;;;;5053662;28;20644;-73
2022/09/20 05:49:30;;;;;;;11.33;10.13;;;9.80;99.90;;;;;;5053672;28;20264;-73
2022/09/20 05:52:27;;;;;;;10.03;8.37;;;9.90;99.90;;;;;;5035869;28;20245;-73
2022/09/20 05:55:19;;;;;;;12.13;8.50;;;9.90;99.90;;;;;;5052652;28;20678;-73
2022/09/20 05:58:10;;;;;;;10.77;8.80;;;10.00;99.90;;;;;;5035134;28;20189;-73
2022/09/20 06:00:44;;;;;;;8.83;8.00;;;10.00;99.90;;;;;;5035233;28;20207;-73
2022/09/20 06:03:24;;;;;;;12.73;8.00;;;10.10;99.90;;;;;;5053162;28;20182;-73
2022/09/20 06:06:30;;;;;;;8.53;7.73;;;10.10;99.90;;;;;;5053077;28;20612;-74
2022/09/20 06:09:01;;;;;;;10.73;9.93;;;10.10;99.90;;;;;;5021783;28;20188;-73
2022/09/20 06:11:45;;;;;;;13.47;12.47;;;10.00;99.90;;;;;;5053309;28;20190;-74
2022/09/20 06:14:35;;;;;;;8.63;7.80;;;10.00;99.90;;;;;;5052908;28;20248;-74
2022/09/20 06:17:20;;;;;;;10.40;8.27;;;10.00;99.90;;;;;;5034631;28;20226;-74
2022/09/20 06:19:50;;;;;;;52.20;49.20;;;10.10;99.90;;;;;;5035811;28;20651;-74
2022/09/20 06:22:41;;;;;;;32.53;30.03;;;10.30;99.90;;;;;;5052687;28;20206;-75
2022/09/20 06:25:07;;;;;;;19.80;17.80;;;10.40;99.90;;;;;;5053081;28;20222;-73
2022/09/20 06:27:44;;;;;;;21.33;19.50;;;10.60;99.90;;;;;;5034464;28;20224;-77
2022/09/20 06:30:21;;;;;;;15.47;14.13;;;10.70;99.90;;;;;;5036307;28;20239;-73
2022/09/20 06:33:00;;;;;;;26.37;24.67;;;10.70;99.90;;;;;;5035177;28;20186;-75
2022/09/20 06:35:44;;;;;;;25.97;24.27;;;10.80;99.90;;;;;;5053213;28;20206;-74
2022/09/20 06:43:49;;;;;;;11.63;10.00;;;11.20;99.90;;;;;;5052735;28;20281;-74
2022/09/20 06:46:16;;;;;;;41.53;39.20;;;11.20;99.90;;;;;;5034928;28;20285;-75
2022/09/20 06:48:41;;;;;;;27.97;25.63;;;11.30;99.90;;;;;;5052590;28;20651;-77
2022/09/20 06:51:11;;;;;;;12.17;10.93;;;11.70;99.90;;;;;;5035707;28;20285;-75
2022/09/20 06:53:39;;;;;;;74.40;70.00;;;11.90;99.90;;;;;;5052436;28;20251;-75
2022/09/20 06:56:12;;;;;;;47.10;44.03;;;12.10;99.90;;;;;;5052486;28;20220;-76
2022/09/20 06:58:37;;;;;;;14.13;12.83;;;12.10;99.90;;;;;;5034362;28;20650;-76
2022/09/20 07:01:04;;;;;;;15.27;13.63;;;12.00;99.90;;;;;;5052363;28;20217;-77
2022/09/20 07:03:31;;;;;;;16.50;14.83;;;12.00;99.90;;;;;;5052064;28;20186;-76
2022/09/20 07:05:59;;;;;;;20.37;18.60;;;11.90;99.90;;;;;;5033606;28;20564;-76
2022/09/20 07:08:26;;;;;;;25.27;23.10;;;11.80;99.90;;;;;;5033860;28;20178;-77
2022/09/20 07:10:51;;;;;;;22.80;21.00;;;11.70;99.90;;;;;;5050573;28;20178;-75
2022/09/20 07:13:19;;;;;;;23.03;17.23;;;11.60;99.90;;;;;;5051090;28;20255;-76
2022/09/20 07:15:45;;;;;;;21.63;19.63;;;11.70;99.90;;;;;;5052361;28;20202;-75
2022/09/20 07:18:11;;;;;;;19.73;17.70;;;11.80;99.90;;;;;;5051500;28;20189;-76
2022/09/20 07:20:37;;;;;;;23.90;19.60;;;11.80;99.90;;;;;;5052647;28;20921;-75
2022/09/20 07:23:03;;;;;;;42.17;38.70;;;11.80;99.90;;;;;;5034342;28;20178;-72
2022/09/20 07:25:30;;;;;;;52.50;49.43;;;11.80;99.90;;;;;;5052143;28;20575;-74
2022/09/20 07:27:56;;;;;;;35.00;31.43;;;11.90;99.90;;;;;;5051828;28;20180;-74
2022/09/20 07:30:23;;;;;;;23.43;21.33;;;12.00;99.90;;;;;;5052112;28;20628;-74
2022/09/20 07:32:49;;;;;;;26.27;24.03;;;12.10;99.90;;;;;;5034649;28;20647;-74
2022/09/20 07:35:15;;;;;;;43.13;39.33;;;12.10;99.90;;;;;;5052234;28;20270;-74
2022/09/20 07:37:40;;;;;;;41.50;38.77;;;12.30;99.90;;;;;;5042629;28;20174;-74
2022/09/20 07:40:08;;;;;;;61.50;57.90;;;12.70;99.90;;;;;;5041971;28;20187;-74
2022/09/20 07:42:34;;;;;;;32.63;29.60;;;13.00;99.90;;;;;;5034022;28;20542;-74
2022/09/20 07:45:01;;;;;;;11.17;10.00;;;13.40;99.90;;;;;;5051337;28;20205;-76
2022/09/20 07:47:30;;;;;;;12.70;11.40;;;13.20;99.90;;;;;;5050343;28;20198;-77
2022/09/20 07:49:57;;;;;;;11.30;9.43;;;13.10;99.90;;;;;;5047887;28;20182;-75
2022/09/20 07:52:23;;;;;;;13.23;12.00;;;13.40;99.90;;;;;;5057155;28;20223;-76
2022/09/20 07:54:49;;;;;;;11.80;10.60;;;13.00;99.90;;;;;;5030730;28;20643;-75
2022/09/20 07:57:15;;;;;;;14.67;13.27;;;12.40;99.90;;;;;;5031013;28;20309;-77
2022/09/20 07:59:41;;;;;;;18.73;14.27;;;12.60;99.90;;;;;;5031140;28;20179;-77
2022/09/20 08:02:13;;;;;;;9.40;8.33;;;13.10;99.90;;;;;;5042586;28;20202;-77
2022/09/20 08:04:40;;;;;;;9.30;8.33;;;13.90;99.90;;;;;;5051248;28;20174;-75
2022/09/20 08:07:06;;;;;;;8.03;7.43;;;14.30;99.90;;;;;;5033129;28;20217;-75
2022/09/20 08:09:32;;;;;;;13.63;8.03;;;14.70;99.90;;;;;;5051630;28;20217;-76
2022/09/20 08:11:58;;;;;;;12.57;9.93;;;15.20;99.90;;;;;;5033437;28;20553;-75
2022/09/20 08:14:24;;;;;;;11.20;10.13;;;15.70;99.90;;;;;;5050646;28;20179;-76
2022/09/20 08:16:51;;;;;;;12.43;7.63;;;15.70;99.90;;;;;;5032189;28;20229;-77
2022/09/20 08:19:19;;;;;;;9.43;8.53;;;15.80;99.90;;;;;;5050877;28;20197;-74
2022/09/20 08:21:46;;;;;;;10.07;9.07;;;15.80;99.90;;;;;;5032829;28;20214;-76
2022/09/20 08:24:14;;;;;;;13.73;11.50;;;15.90;99.90;;;;;;5033209;28;20209;-75
2022/09/20 08:26:40;;;;;;;12.60;11.50;;;16.00;99.90;;;;;;5032922;28;20572;-75
2022/09/20 08:29:07;;;;;;;11.27;7.50;;;16.10;99.90;;;;;;5049991;28;20174;-75
2022/09/20 08:31:36;;;;;;;9.30;6.90;;;16.20;99.90;;;;;;5052014;28;20584;-76
2022/09/20 08:34:05;;;;;;;8.73;6.93;;;15.90;99.90;;;;;;5051048;28;20190;-75
2022/09/20 08:36:33;;;;;;;13.70;12.77;;;15.90;99.90;;;;;;5032812;28;20202;-74
2022/09/20 08:38:59;;;;;;;14.33;9.77;;;16.40;99.90;;;;;;5050187;28;20197;-74
2022/09/20 08:41:27;;;;;;;8.87;7.73;;;16.80;99.90;;;;;;5032674;28;20573;-75
2022/09/20 08:44:22;;;;;;;9.37;8.23;;;16.70;99.90;;;;;;5050014;28;20179;-74
2022/09/20 08:46:51;;;;;;;9.77;8.90;;;15.90;99.90;;;;;;5040728;28;20296;-74
2022/09/20 08:49:25;;;;;;;10.53;9.53;;;16.20;99.90;;;;;;5032329;28;20270;-75
2022/09/20 08:51:56;;;;;;;8.23;7.00;;;16.70;99.90;;;;;;5050061;28;20585;-74
2022/09/20 08:54:23;;;;;;;17.07;15.80;;;17.10;99.90;;;;;;5032699;28;20182;-75
2022/09/20 08:56:50;;;;;;;18.13;16.33;;;17.30;99.90;;;;;;5049520;28;20225;-74
2022/09/20 08:59:19;;;;;;;15.23;13.67;;;17.10;99.90;;;;;;5050015;28;20179;-75
2022/09/20 09:01:50;;;;;;;19.37;17.87;;;17.10;99.90;;;;;;5050490;28;20198;-75
2022/09/20 09:04:23;;;;;;;18.70;17.30;;;16.70;99.90;;;;;;5030443;28;20244;-74
2022/09/20 09:06:51;;;;;;;25.97;24.20;;;16.90;99.90;;;;;;5025087;28;20202;-76
2022/09/20 09:09:24;;;;;;;29.07;26.57;;;17.20;99.90;;;;;;5029941;28;20731;-76
2022/09/20 09:11:52;;;;;;;40.67;38.13;;;17.60;99.90;;;;;;5020743;28;20241;-74
2022/09/20 09:17:02;;;;;;;44.03;41.07;;;17.70;99.90;;;;;;5054277;28;20212;-75
2022/09/20 09:19:42;;;;;;;35.33;33.27;;;17.40;99.90;;;;;;5054509;28;20178;-76
2022/09/20 09:22:09;;;;;;;33.87;31.47;;;17.70;99.90;;;;;;5037111;28;20607;-75
2022/09/20 09:24:35;;;;;;;23.70;22.20;;;18.00;99.90;;;;;;5054257;28;20639;-75
2022/09/20 09:27:18;;;;;;;15.63;14.50;;;18.70;99.90;;;;;;5054949;28;20259;-75
2022/09/20 09:29:53;;;;;;;12.10;10.87;;;17.30;99.90;;;;;;5056243;28;20205;-74
2022/09/20 09:32:31;;;;;;;17.80;16.30;;;17.00;99.90;;;;;;5054401;28;20190;-75
2022/09/20 09:35:28;;;;;;;21.87;20.23;;;16.90;99.90;;;;;;5054293;28;20278;-74
2022/09/20 09:37:59;;;;;;;17.53;16.47;;;16.80;99.90;;;;;;5053929;28;20194;-74
2022/09/20 09:40:27;;;;;;;21.40;20.03;;;16.10;99.90;;;;;;5054594;28;20822;-75
2022/09/20 09:42:59;;;;;;;35.43;33.10;;;15.70;99.90;;;;;;5036365;28;20178;-75
2022/09/20 09:45:32;;;;;;;41.43;38.93;;;15.50;99.90;;;;;;5054133;28;20604;-75
2022/09/20 09:48:00;;;;;;;35.27;33.33;;;15.80;99.90;;;;;;5053855;28;20186;-75
2022/09/20 09:50:30;;;;;;;44.37;41.87;;;16.20;99.90;;;;;;5031282;28;20746;-74
2022/09/20 09:53:12;;;;;;;34.57;31.93;;;16.70;99.90;;;;;;5021617;28;20191;-76
2022/09/20 09:55:50;;;;;;;21.63;20.40;;;16.80;99.90;;;;;;5060000;22;20206;-77
2022/09/20 09:58:33;;;;;;;29.17;27.47;;;17.00;99.90;;;;;;5051054;28;20625;-75
2022/09/20 10:01:04;;;;;;;18.67;17.30;;;16.90;99.90;;;;;;5053633;28;20297;-76
2022/09/20 10:04:01;;;;;;;20.77;19.03;;;17.00;99.90;;;;;;5052405;28;20651;-73
2022/09/20 10:06:42;;;;;;;12.07;11.17;;;16.80;99.90;;;;;;5053337;28;20209;-73
2022/09/20 10:09:29;;;;;;;13.40;12.50;;;16.60;99.90;;;;;;5073118;28;20242;-72
2022/09/20 10:12:27;;;;;;;12.47;11.50;;;16.50;99.90;;;;;;5085838;28;20199;-74
2022/09/20 10:15:25;;;;;;;9.03;5.23;;;17.40;99.90;;;;;;5040052;28;20199;-74
2022/09/20 10:17:57;;;;;;;7.67;4.73;;;18.50;99.90;;;;;;5073552;28;20197;-74
2022/09/20 10:20:51;;;;;;;7.83;4.17;;;19.00;99.90;;;;;;5072084;28;20177;-72
2022/09/20 10:24:12;;;;;;;10.40;6.30;;;19.50;99.90;;;;;;5067944;28;20542;-74
2022/09/20 10:26:50;;;;;;;6.00;5.43;;;18.00;99.90;;;;;;4982298;28;20240;-76
2022/09/20 10:29:39;;;;;;;7.10;5.77;;;17.30;99.90;;;;;;5053755;28;20182;-77
2022/09/20 10:32:17;;;;;;;5.90;4.73;;;17.10;99.90;;;;;;5069112;28;20185;-75
2022/09/20 10:35:07;;;;;;;4.23;3.87;;;16.60;99.90;;;;;;5051940;28;20185;-75
2022/09/20 10:37:54;;;;;;;6.77;6.17;;;16.00;99.90;;;;;;5060114;28;20204;-74
2022/09/20 10:40:22;;;;;;;6.23;5.50;;;15.50;99.90;;;;;;5072677;28;20182;-75
2022/09/20 10:45:56;;;;;;;21.63;20.07;;;15.10;99.90;;;;;;5072918;28;20661;-74
2022/09/20 10:48:30;;;;;;;46.40;43.83;;;15.20;99.90;;;;;;5083658;28;20605;-75
2022/09/20 10:51:05;;;;;;;9.63;9.03;;;16.20;99.90;;;;;;5087223;28;20181;-73
2022/09/20 10:53:54;;;;;;;7.57;6.97;;;16.90;99.90;;;;;;5071290;28;20563;-75
2022/09/20 10:56:28;;;;;;;6.17;4.27;;;17.50;99.90;;;;;;5072784;28;20213;-74
2022/09/20 10:59:46;;;;;;;6.33;5.80;;;18.50;99.90;;;;;;5071417;28;20239;-74
2022/09/20 11:02:39;;;;;;;21.17;19.57;;;19.70;99.90;;;;;;5070094;28;20210;-74
2022/09/20 11:05:40;;;;;;;26.53;24.93;;;18.90;99.90;;;;;;5052667;28;20185;-74
2022/09/20 11:08:21;;;;;;;25.57;24.30;;;18.20;99.90;;;;;;5052405;28;20178;-76
2022/09/20 11:10:58;;;;;;;19.90;18.53;;;18.00;99.90;;;;;;5052588;28;20189;-76
2022/09/20 11:13:37;;;;;;;28.33;26.83;;;17.50;99.90;;;;;;5052643;28;20185;-76
2022/09/20 11:16:16;;;;;;;33.07;31.37;;;17.30;99.90;;;;;;5053659;28;20263;-76
2022/09/20 11:18:58;;;;;;;32.40;30.57;;;17.00;99.90;;;;;;5069066;28;20186;-79
2022/09/20 11:21:37;;;;;;;30.50;29.00;;;16.90;99.90;;;;;;5051888;28;20214;-77
2022/09/20 11:24:41;;;;;;;31.43;29.63;;;16.60;99.90;;;;;;5042630;28;20269;-77
2022/09/20 11:27:17;;;;;;;15.67;14.37;;;16.20;99.90;;;;;;5030033;28;20202;-75
2022/09/20 11:30:13;;;;;;;10.60;9.80;;;16.10;99.90;;;;;;5030716;28;20206;-75
2022/09/20 11:32:47;;;;;;;7.73;7.03;;;16.10;99.90;;;;;;5027424;28;20218;-74
2022/09/20 11:35:20;;;;;;;9.00;5.33;;;16.30;99.90;;;;;;5031517;28;20178;-75
2022/09/20 11:38:02;;;;;;;7.40;5.73;;;16.30;99.90;;;;;;5031227;28;20610;-75
2022/09/20 11:40:33;;;;;;;4.70;4.30;;;16.50;99.90;;;;;;5030980;28;20179;-75
2022/09/20 11:43:02;;;;;;;7.07;4.47;;;16.50;99.90;;;;;;5029889;28;20202;-75
2022/09/20 11:45:29;;;;;;;6.40;6.00;;;16.50;99.90;;;;;;5057459;28;20728;-75
2022/09/20 11:48:29;;;;;;;9.57;8.90;;;16.90;99.90;;;;;;5071004;28;20278;-75
2022/09/20 11:50:55;;;;;;;25.70;24.33;;;17.80;99.90;;;;;;5070034;28;20189;-75
2022/09/20 11:53:43;;;;;;;32.23;30.37;;;19.00;99.90;;;;;;5087389;28;20188;-75
2022/09/20 11:56:19;;;;;;;9.33;7.83;;;19.30;99.90;;;;;;5104210;28;20251;-77
2022/09/20 11:59:16;;;;;;;8.30;7.57;;;19.50;99.20;;;;;;5065487;28;20178;-77
2022/09/20 12:01:42;;;;;;;10.00;9.03;;;19.30;99.40;;;;;;5048405;28;20586;-78
2022/09/20 12:04:24;;;;;;;7.43;5.60;;;20.80;98.40;;;;;;5052241;28;20184;-76
2022/09/20 12:07:22;;;;;;;6.50;5.87;;;21.10;94.60;;;;;;5043082;28;20202;-76
2022/09/20 12:10:25;;;;;;;6.50;6.00;;;21.50;94.00;;;;;;5042538;28;20212;-75
2022/09/20 12:13:02;;;;;;;5.77;4.83;;;20.70;92.60;;;;;;5046605;28;20214;-75
2022/09/20 12:15:38;;;;;;;6.67;3.60;;;21.30;93.90;;;;;;5069655;28;20182;-75
2022/09/20 12:18:29;;;;;;;7.47;5.80;;;21.80;91.70;;;;;;5070798;28;20188;-75
2022/09/20 12:21:04;;;;;;;8.13;7.50;;;22.60;84.30;;;;;;5071426;28;20300;-75
2022/09/20 12:23:40;;;;;;;12.47;11.67;;;22.40;82.80;;;;;;5070900;28;20177;-75
2022/09/20 12:26:12;;;;;;;6.00;4.57;;;21.30;84.10;;;;;;5069186;28;20200;-75
2022/09/20 12:28:50;;;;;;;4.97;4.50;;;19.90;90.40;;;;;;5050518;28;20232;-75
2022/09/20 12:31:21;;;;;;;9.37;7.17;;;18.90;93.40;;;;;;5050845;28;20284;-75
2022/09/20 12:34:12;;;;;;;9.57;8.87;;;18.00;96.60;;;;;;5049590;28;20186;-75
2022/09/20 12:36:54;;;;;;;15.70;14.80;;;17.30;99.40;;;;;;5049621;28;20213;-75
2022/09/20 12:39:27;;;;;;;53.73;50.57;;;16.80;99.90;;;;;;5050687;28;20178;-75
2022/09/20 12:41:59;;;;;;;53.10;49.97;;;16.50;99.90;;;;;;5051654;28;20207;-75
2022/09/20 12:44:48;;;;;;;48.63;46.13;;;16.50;99.90;;;;;;5050737;28;20579;-75
2022/09/20 12:47:36;;;;;;;47.97;45.20;;;16.60;99.90;;;;;;5050128;28;20291;-75
2022/09/20 12:52:59;;;;;;;47.37;44.53;;;17.30;99.90;;;;;;5050537;28;20205;-75
2022/09/20 12:55:42;;;;;;;33.23;31.07;;;17.70;99.90;;;;;;5078287;28;20177;-75
2022/09/20 12:58:14;;;;;;;21.97;20.60;;;18.40;99.70;;;;;;5070439;28;20205;-75
2022/09/20 13:00:49;;;;;;;11.80;10.60;;;18.60;98.80;;;;;;5070648;28;20663;-76
2022/09/20 13:03:20;;;;;;;9.47;8.87;;;18.50;99.80;;;;;;5070671;28;20195;-75
2022/09/20 13:06:09;;;;;;;8.17;7.57;;;18.40;98.20;;;;;;5070602;28;20239;-75
2022/09/20 13:08:59;;;;;;;10.07;9.27;;;18.30;98.80;;;;;;5064622;28;20643;-75
2022/09/20 13:11:46;;;;;;;21.20;19.90;;;17.90;98.70;;;;;;5050949;28;20185;-76
2022/09/20 13:14:22;;;;;;;32.83;31.13;;;17.60;99.90;;;;;;5066908;28;20182;-77
2022/09/20 13:16:53;;;;;;;27.50;25.77;;;17.60;99.90;;;;;;5053827;28;20606;-78
2022/09/20 13:19:28;;;;;;;41.17;38.77;;;17.80;99.90;;;;;;5051219;28;20190;-78
2022/09/20 13:22:05;;;;;;;62.63;59.07;;;17.50;99.90;;;;;;5067660;28;20709;-78
2022/09/20 13:24:46;;;;;;;41.23;38.77;;;17.10;99.90;;;;;;5036049;28;20257;-76
2022/09/20 13:27:23;;;;;;;35.83;33.90;;;16.80;99.90;;;;;;5048928;28;20680;-76
2022/09/20 13:29:49;;;;;;;33.00;30.90;;;16.50;99.90;;;;;;5065938;28;20178;-76
2022/09/20 13:32:27;;;;;;;23.90;22.60;;;16.40;99.90;;;;;;5049291;28;20679;-77
2022/09/20 13:35:11;;;;;;;25.40;23.93;;;16.40;99.90;;;;;;5077315;28;20213;-76
2022/09/20 13:37:44;;;;;;;31.20;29.53;;;16.40;99.90;;;;;;5060948;28;20240;-77
2022/09/20 13:40:32;;;;;;;24.83;22.90;;;16.30;99.90;;;;;;5051603;28;20208;-76
2022/09/20 13:43:02;;;;;;;34.10;31.73;;;16.40;99.90;;;;;;5049482;28;20277;-77
2022/09/20 13:45:29;;;;;;;19.73;18.63;;;16.40;99.90;;;;;;5049557;28;20179;-76
2022/09/20 13:48:00;;;;;;;18.90;17.83;;;16.60;99.90;;;;;;5050507;28;20221;-77